CW7399 Weather Reports


Display with metric or nautical units.
time (UTC)temp
F
wind
direction
speed
MPH
gust
MPH
rain 1hr
in
rain 24hr
in
rain mn
in
humidity
%
barometer
mb
20190122091505 7 250 7.0 12.0 0.00 0.00 0.00 53 1025.5
20190122091005 7 312 6.0 11.0 0.00 0.00 0.00 52 1025.3
20190122090505 7 304 5.0 9.0 0.00 0.00 0.00 53 1025.2
20190122090006 7 336 8.0 14.0 0.00 0.00 0.00 53 1024.8
20190122085504 7 321 7.0 13.0 0.00 0.00 0.00 54 1024.8
20190122085005 7 327 8.0 13.0 0.00 0.00 0.00 55 1024.8
20190122084504 7 349 6.0 12.0 0.00 0.00 0.00 56 1024.7
20190122084005 7 326 5.0 9.0 0.00 0.00 0.00 56 1024.5
20190122083505 7 338 6.0 12.0 0.00 0.00 0.00 56 1024.4
20190122083005 7 341 5.0 8.0 0.00 0.00 0.00 57 1024.5
20190122082504 6 217 6.0 11.0 0.00 0.00 0.00 57 1024.4
20190122082006 6 341 5.0 11.0 0.00 0.00 0.00 57 1024.3
20190122081506 6 346 7.0 12.0 0.00 0.00 0.00 58 1024.2
20190122081005 6 305 7.0 12.0 0.00 0.00 0.00 58 1024.2
20190122080505 6 338 6.0 10.0 0.00 0.00 0.00 58 1024.2
20190122080005 6 320 7.0 15.0 0.00 0.00 0.00 59 1024.2
20190122075504 6 280 5.0 11.0 0.00 0.00 0.00 58 1024.3
20190122075004 6 313 5.0 11.0 0.00 0.00 0.00 57 1024.3
20190122074505 6 280 5.0 9.0 0.00 0.00 0.00 58 1024.3
20190122074004 6 320 5.0 12.0 0.00 0.00 0.00 58 1024.2
20190122073505 6 282 5.0 11.0 0.00 0.00 0.00 58 1024.3
20190122073005 6 254 5.0 10.0 0.00 0.00 0.00 58 1024.1
20190122072505 6 236 4.0 9.0 0.00 0.00 0.00 59 1024.0
20190122072005 6 236 5.0 9.0 0.00 0.00 0.00 59 1023.9
20190122071505 6 237 6.0 10.0 0.00 0.00 0.00 59 1023.7
20190122071006 6 295 5.0 10.0 0.00 0.00 0.00 59 1023.7
20190122070505 5 226 6.0 12.0 0.00 0.00 0.00 58 1023.6
20190122070006 5 252 5.0 10.0 0.00 0.00 0.00 58 1023.6
20190122065504 5 194 5.0 10.0 0.00 0.00 0.00 57 1023.5
20190122065005 5 342 5.0 9.0 0.00 0.00 0.00 58 1023.4
20190122064504 5 183 4.0 10.0 0.00 0.00 0.00 58 1023.4
20190122064005 5 245 5.0 11.0 0.00 0.00 0.00 59 1023.3
20190122063505 5 352 4.0 9.0 0.00 0.00 0.00 59 1023.2
20190122063006 5 337 4.0 9.0 0.00 0.00 0.00 59 1023.1
20190122062505 5 272 5.0 11.0 0.00 0.00 0.00 59 1022.9
20190122062005 5 312 4.0 9.0 0.00 0.00 0.00 59 1022.9
20190122061505 5 229 4.0 9.0 0.00 0.00 0.00 58 1022.9
20190122061006 5 288 5.0 8.0 0.00 0.00 0.00 58 1022.8
20190122060505 5 215 4.0 7.0 0.00 0.00 0.00 57 1022.8
20190122060005 5 344 5.0 11.0 0.00 0.00 0.00 58 1022.7
20190122055505 5 346 4.0 9.0 0.00 0.00 0.00 58 1022.6
20190122055005 5 307 7.0 15.0 0.00 0.00 0.00 58 1022.4
20190122054506 5 329 7.0 11.0 0.00 0.00 0.00 59 1022.4
20190122054005 5 227 8.0 17.0 0.00 0.00 0.00 59 1022.4
20190122053505 5 320 4.0 9.0 0.00 0.00 0.00 59 1022.2
20190122053006 5 250 5.0 10.0 0.00 0.00 0.00 59 1022.3
20190122052505 5 326 5.0 9.0 0.00 0.00 0.00 58 1022.1
20190122052005 5 240 6.0 12.0 0.00 0.00 0.00 58 1022.0
20190122051505 5 286 4.0 9.0 0.00 0.00 0.00 60 1022.0
20190122051006 5 281 5.0 10.0 0.00 0.00 0.00 60 1022.0
20190122050505 5 333 6.0 11.0 0.00 0.00 0.00 59 1022.0
20190122045506 5 234 5.0 11.0 0.00 0.00 0.00 60 1021.8
20190122045005 5 281 5.0 12.0 0.00 0.00 0.00 60 1021.8
20190122044505 5 342 6.0 10.0 0.00 0.00 0.00 61 1021.7
20190122044005 5 272 6.0 10.0 0.00 0.00 0.00 61 1021.7
20190122043504 5 312 6.0 10.0 0.00 0.00 0.00 61 1021.7
20190122043006 5 245 6.0 10.0 0.00 0.00 0.00 62 1021.5
20190122042505 5 288 6.0 11.0 0.00 0.00 0.00 61 1021.4
20190122042006 5 245 6.0 12.0 0.00 0.00 0.00 60 1021.4
20190122041504 5 227 8.0 15.0 0.00 0.00 0.00 61 1021.2
20190122041004 5 256 8.0 13.0 0.00 0.00 0.00 62 1021.2
20190122040505 5 346 7.0 12.0 0.00 0.00 0.00 62 1021.2
20190122040006 5 306 6.0 12.0 0.00 0.00 0.00 62 1021.2
20190122035505 5 276 6.0 11.0 0.00 0.00 0.00 62 1021.0
20190122035005 5 261 6.0 14.0 0.00 0.00 0.00 62 1021.0
20190122034506 5 313 6.0 11.0 0.00 0.00 0.00 62 1020.9
20190122034005 5 340 5.0 10.0 0.00 0.00 0.00 61 1020.8
20190122033505 5 272 5.0 11.0 0.00 0.00 0.00 62 1020.7
20190122033006 5 313 8.0 16.0 0.00 0.00 0.00 62 1020.6
20190122032506 5 246 6.0 11.0 0.00 0.00 0.00 63 1020.5
20190122032005 5 331 5.0 11.0 0.00 0.00 0.00 63 1020.5
20190122031505 5 330 4.0 9.0 0.00 0.00 0.00 64 1020.2
20190122031006 5 206 5.0 11.0 0.00 0.00 0.00 64 1020.1
20190122030505 5 342 7.0 12.0 0.00 0.00 0.00 64 1020.0
20190122030005 6 352 4.0 8.0 0.00 0.00 0.00 63 1019.7
20190122025505 6 353 7.0 12.0 0.00 0.00 0.00 62 1019.6
20190122025005 6 322 6.0 13.0 0.00 0.00 0.00 62 1019.4
20190122024505 6 326 7.0 12.0 0.00 0.00 0.00 63 1019.3
20190122024005 6 319 6.0 13.0 0.00 0.00 0.00 64 1019.0
20190122023505 6 330 9.0 14.0 0.00 0.00 0.00 64 1018.9
20190122023005 6 231 5.0 9.0 0.00 0.00 0.00 64 1018.9
20190122022505 6 267 6.0 11.0 0.00 0.00 0.00 65 1018.7
20190122022005 6 284 5.0 8.0 0.00 0.00 0.00 66 1018.6
20190122021505 6 309 4.0 9.0 0.00 0.00 0.00 67 1018.5
20190122021006 6 224 6.0 10.0 0.00 0.00 0.00 67 1018.4
20190122020504 6 345 7.0 12.0 0.00 0.00 0.00 68 1018.3
20190122020006 6 13 5.0 10.0 0.00 0.00 0.00 68 1018.3
20190122015505 6 243 6.0 11.0 0.00 0.00 0.00 69 1018.2
20190122015005 6 12 3.0 6.0 0.00 0.00 0.00 67 1018.1
20190122014505 6 5 5.0 9.0 0.00 0.00 0.00 68 1017.9
20190122014005 6 330 6.0 12.0 0.00 0.00 0.00 68 1017.9
20190122013505 6 354 4.0 8.0 0.00 0.00 0.00 68 1017.9
20190122013005 5 334 7.0 12.0 0.00 0.00 0.00 67 1017.7
20190122012505 5 339 7.0 13.0 0.00 0.00 0.00 68 1017.7
20190122012005 5 351 6.0 11.0 0.00 0.00 0.00 68 1017.5
20190122011505 5 349 9.0 15.0 0.00 0.00 0.00 70 1017.3
20190122011004 5 8 6.0 13.0 0.00 0.00 0.00 70 1017.3
20190122010504 5 1 6.0 11.0 0.00 0.00 0.00 71 1017.1
20190122010005 5 332 4.0 10.0 0.00 0.00 0.00 70 1017.1
20190122005505 5 277 7.0 12.0 0.00 0.00 0.00 70 1016.9
20190122005004 5 322 6.0 11.0 0.00 0.00 0.00 68 1016.8
20190122004504 5 330 7.0 11.0 0.00 0.00 0.00 68 1016.7
20190122004005 5 332 6.0 11.0 0.00 0.00 0.00 67 1016.7
20190122003505 5 313 8.0 15.0 0.00 0.00 0.00 67 1016.4
20190122003006 5 274 8.0 14.0 0.00 0.00 0.00 66 1016.3
20190122002504 5 353 7.0 14.0 0.00 0.00 0.00 65 1016.2
20190122002006 5 329 9.0 16.0 0.00 0.00 0.00 66 1016.1
20190122001505 4 273 7.0 14.0 0.00 0.00 0.00 66 1016.0
20190122001005 4 288 8.0 14.0 0.00 0.00 0.00 66 1015.9
20190122000505 4 351 6.0 14.0 0.00 0.00 0.00 66 1015.8
20190122000006 4 338 9.0 15.0 0.00 0.00 0.00 65 1015.9
20190121235505 4 337 9.0 15.0 0.00 0.00 0.00 65 1015.8
20190121235006 4 342 8.0 14.0 0.00 0.00 0.00 64 1015.7
20190121234504 4 248 8.0 14.0 0.00 0.00 0.00 65 1015.6
20190121234005 4 300 9.0 15.0 0.00 0.00 0.00 65 1015.4
20190121233505 4 215 8.0 15.0 0.00 0.00 0.00 65 1015.4
20190121233005 4 201 4.0 10.0 0.00 0.00 0.00 65 1015.2
20190121232505 4 301 6.0 12.0 0.00 0.00 0.00 64 1015.1
20190121232005 4 281 5.0 9.0 0.00 0.00 0.00 65 1015.1
20190121231504 4 359 7.0 12.0 0.00 0.00 0.00 64 1014.9
20190121231004 4 337 8.0 16.0 0.00 0.00 0.00 64 1014.7
20190121230505 4 318 7.0 11.0 0.00 0.00 0.00 64 1014.7
20190121230006 4 328 10.0 16.0 0.00 0.00 0.00 65 1014.6
20190121225504 4 346 6.0 12.0 0.00 0.00 0.00 65 1014.6
20190121225007 4 348 6.0 12.0 0.00 0.00 0.00 65 1014.5
20190121224505 3 215 8.0 14.0 0.00 0.00 0.00 66 1014.5
20190121224005 3 287 7.0 11.0 0.00 0.00 0.00 65 1014.5
20190121223509 3 8 6.0 10.0 0.00 0.00 0.00 66 1014.2
20190121223004 3 317 7.0 11.0 0.00 0.00 0.00 65 1014.1
20190121222505 3 210 7.0 11.0 0.00 0.00 0.00 66 1014.0
20190121222005 3 347 7.0 11.0 0.00 0.00 0.00 66 1013.8
20190121221505 3 331 6.0 11.0 0.00 0.00 0.00 67 1013.7
20190121221005 3 293 7.0 14.0 0.00 0.00 0.00 66 1013.6
20190121220505 3 3 6.0 10.0 0.00 0.00 0.00 67 1013.5
20190121220005 3 259 6.0 10.0 0.00 0.00 0.00 67 1013.4
20190121215505 3 326 6.0 10.0 0.00 0.00 0.00 67 1013.3
20190121215005 3 332 6.0 10.0 0.00 0.00 0.00 67 1013.2
20190121214504 3 341 8.0 14.0 0.00 0.00 0.00 68 1013.1
20190121214006 3 208 6.0 12.0 0.00 0.00 0.00 67 1012.9
20190121213505 4 4 7.0 12.0 0.00 0.00 0.00 69 1012.9
20190121213006 4 322 7.0 13.0 0.00 0.00 0.00 69 1012.5
20190121212505 4 230 6.0 12.0 0.00 0.00 0.00 71 1012.6
20190121212005 4 275 6.0 11.0 0.00 0.00 0.00 71 1012.5
20190121211505 4 247 9.0 12.0 0.00 0.00 0.00 71 1012.3
20190121211005 4 343 4.0 8.0 0.00 0.00 0.00 72 1012.2
20190121210505 4 214 7.0 14.0 0.00 0.00 0.00 73 1012.2
20190121210006 4 258 6.0 11.0 0.00 0.00 0.00 73 1012.1
20190121205505 4 350 4.0 10.0 0.00 0.00 0.00 71 1012.0
20190121205006 4 283 6.0 10.0 0.00 0.00 0.00 69 1012.0
20190121204504 4 274 7.0 11.0 0.00 0.00 0.00 70 1011.9
20190121204005 4 285 5.0 11.0 0.00 0.00 0.00 70 1011.8
20190121203506 4 327 7.0 13.0 0.00 0.00 0.00 72 1011.7
20190121203006 4 270 7.0 14.0 0.00 0.01 0.00 71 1011.7
20190121202504 4 281 8.0 14.0 0.00 0.02 0.00 71 1011.6
20190121202005 4 221 6.0 9.0 0.00 0.04 0.00 70 1011.5
20190121201505 4 214 5.0 9.0 0.00 0.06 0.00 68 1011.4
20190121200007 4 342 7.0 12.0 0.00 0.08 0.00 68 1011.0
20190121195505 4 312 7.0 12.0 0.00 0.09 0.00 69 1010.9
20190121195005 4 336 7.0 14.0 0.00 0.09 0.00 69 1010.8
20190121194506 4 314 7.0 13.0 0.00 0.10 0.00 69 1010.6
20190121194005 5 262 8.0 14.0 0.00 0.11 0.00 69 1010.6
20190121193507 5 354 5.0 10.0 0.00 0.13 0.00 69 1010.6
20190121193006 5 326 9.0 15.0 0.00 0.14 0.00 71 1010.5
20190121192504 5 227 8.0 15.0 0.00 0.16 0.00 73 1010.3
20190121192006 5 316 7.0 13.0 0.00 0.17 0.00 73 1010.1
20190121191506 5 271 8.0 15.0 0.00 0.18 0.00 71 1010.1
20190121191006 5 283 7.0 12.0 0.00 0.20 0.00 69 1010.0
20190121190504 5 251 6.0 11.0 0.00 0.21 0.00 70 1010.0
20190121190007 6 336 6.0 11.0 0.00 0.22 0.00 72 1010.0
20190121185504 5 204 5.0 11.0 0.00 0.22 0.00 70 1009.9
20190121185005 5 326 6.0 11.0 0.00 0.24 0.00 68 1009.9
20190121184504 5 323 7.0 12.0 0.00 0.25 0.00 69 1009.8
20190121184005 6 290 8.0 16.0 0.00 0.26 0.00 68 1009.8
20190121183505 5 297 6.0 10.0 0.00 0.27 0.00 67 1009.7
20190121183007 5 322 5.0 7.0 0.00 0.28 0.00 67 1009.7
20190121182505 5 348 6.0 10.0 0.00 0.28 0.00 67 1009.6
20190121182007 5 339 8.0 13.0 0.00 0.30 0.00 67 1009.7
20190121181505 5 214 6.0 9.0 0.00 0.31 0.00 68 1009.6
20190121181005 5 280 7.0 12.0 0.00 0.31 0.00 67 1009.8
20190121180505 5 219 8.0 15.0 0.00 0.31 0.00 67 1009.8
20190121180006 5 328 7.0 11.0 0.00 0.32 0.00 67 1009.7
20190121175504 5 347 7.0 11.0 0.00 0.32 0.00 68 1009.8
20190121175005 5 349 7.0 10.0 0.00 0.33 0.00 69 1009.7
20190121174505 4 352 6.0 11.0 0.00 0.33 0.00 69 1009.7
20190121174004 4 345 6.0 9.0 0.00 0.34 0.00 68 1009.6
20190121173504 4 339 7.0 11.0 0.00 0.35 0.00 69 1009.8
20190121173006 4 333 9.0 18.0 0.00 0.37 0.00 68 1009.8
20190121172505 5 325 9.0 16.0 0.00 0.38 0.00 69 1009.9
20190121172005 5 231 6.0 11.0 0.00 0.40 0.00 69 1009.8
20190121171506 5 250 5.0 10.0 0.00 0.42 0.00 70 1009.9
20190121171005 5 292 7.0 16.0 0.00 0.44 0.00 71 1010.0
20190121170505 5 274 6.0 11.0 0.00 0.45 0.00 73 1009.9
20190121170005 5 241 4.0 7.0 0.00 0.46 0.00 72 1009.9
20190121165506 5 285 5.0 11.0 0.00 0.48 0.00 71 1009.9
20190121165005 5 231 7.0 10.0 0.00 0.50 0.00 71 1010.0
20190121164506 5 289 7.0 13.0 0.00 0.53 0.00 71 1010.0
20190121164005 5 223 7.0 13.0 0.00 0.55 0.00 70 1010.1
20190121163504 4 295 6.0 13.0 0.00 0.56 0.00 71 1010.1
20190121163005 4 236 5.0 11.0 0.00 0.59 0.00 72 1010.1
20190121162505 5 303 7.0 12.0 0.00 0.62 0.00 73 1010.1
20190121162006 5 321 6.0 10.0 0.00 0.72 0.00 73 1010.2
20190121161505 5 232 5.0 10.0 0.00 0.74 0.00 71 1010.2
20190121161004 5 279 5.0 11.0 0.00 0.76 0.00 70 1010.2
20190121160506 5 341 5.0 9.0 0.00 0.79 0.00 70 1010.3
20190121160006 5 245 6.0 12.0 0.00 0.81 0.00 69 1010.5
20190121155504 5 337 6.0 12.0 0.00 0.82 0.00 71 1010.3
20190121155005 5 212 5.0 9.0 0.00 0.85 0.00 71 1010.4
20190121154505 5 333 6.0 12.0 0.00 0.86 0.00 69 1010.4
20190121154005 5 327 6.0 11.0 0.00 0.88 0.00 70 1010.4
20190121153506 5 264 5.0 10.0 0.00 0.90 0.00 69 1010.4
20190121153006 5 307 7.0 13.0 0.00 0.92 0.00 70 1010.3
20190121152505 5 224 6.0 13.0 0.00 0.94 0.00 70 1010.3
20190121152005 5 238 8.0 13.0 0.00 0.96 0.00 70 1010.2
20190121151506 5 242 7.0 14.0 0.00 0.98 0.00 70 1010.1
20190121151005 5 282 7.0 13.0 0.00 1.01 0.00 70 1010.0
20190121150505 4 218 7.0 12.0 0.00 1.04 0.00 70 1010.0
20190121150007 4 314 5.0 8.0 0.00 1.12 0.00 70 1010.0
20190121145505 4 232 7.0 11.0 0.00 1.20 0.00 70 1009.9
20190121145005 4 286 8.0 14.0 0.00 1.21 0.00 70 1009.8
20190121144505 4 329 7.0 14.0 0.00 1.21 0.00 70 1009.8
20190121144006 4 293 7.0 13.0 0.00 1.21 0.00 71 1009.7
20190121143505 4 211 6.0 11.0 0.00 1.21 0.00 70 1009.7
20190121143006 4 247 6.0 11.0 0.00 1.21 0.00 71 1009.8
20190121142505 4 238 6.0 10.0 0.00 1.21 0.00 71 1009.7
20190121142005 4 349 6.0 11.0 0.00 1.21 0.00 71 1009.6
20190121141505 4 335 6.0 10.0 0.00 1.21 0.00 72 1009.6
20190121141004 4 206 6.0 11.0 0.00 1.21 0.00 72 1009.5
20190121140009 4 259 7.0 14.0 0.00 1.21 0.00 72 1009.4
20190121135505 4 222 8.0 14.0 0.00 1.21 0.00 72 1009.3
20190121135005 4 249 6.0 13.0 0.00 1.22 0.00 73 1009.3
20190121134505 4 261 6.0 10.0 0.00 1.23 0.00 72 1009.1
20190121134004 4 226 6.0 11.0 0.00 1.25 0.00 73 1009.0
20190121133505 4 254 7.0 13.0 0.00 1.26 0.00 73 1008.9
20190121133005 4 240 6.0 10.0 0.00 1.29 0.00 74 1008.8
20190121132505 3 225 4.0 7.0 0.00 1.31 0.00 74 1008.6
20190121132005 3 248 6.0 12.0 0.00 1.32 0.00 74 1008.5
20190121131504 3 239 5.0 9.0 0.00 1.34 0.00 74 1008.3
20190121131005 3 330 7.0 12.0 0.00 1.36 0.00 73 1008.1
20190121130505 3 239 8.0 16.0 0.00 1.38 0.00 74 1008.1
20190121130008 3 262 3.0 7.0 0.00 1.39 0.00 74 1007.9
20190121125504 3 280 7.0 13.0 0.00 1.41 0.00 74 1007.7
20190121125005 2 215 6.0 11.0 0.00 1.42 0.00 75 1007.6
20190121124505 2 218 6.0 11.0 0.00 1.44 0.00 74 1007.6
20190121124005 2 317 5.0 9.0 0.00 1.46 0.00 73 1007.5
20190121123505 2 253 4.0 9.0 0.00 1.48 0.00 74 1007.4
20190121123005 2 258 6.0 12.0 0.00 1.49 0.00 74 1007.2
20190121122504 2 218 5.0 10.0 0.00 1.51 0.00 73 1007.1
20190121121505 2 248 3.0 7.0 0.00 1.59 0.00 72 1006.9
20190121121005 2 318 4.0 10.0 0.00 1.60 0.00 72 1006.9
20190121120505 2 262 6.0 13.0 0.00 1.64 0.00 72 1006.8
20190121120007 2 275 5.0 10.0 0.00 1.70 0.00 73 1006.8
20190121115504 2 11 3.0 6.0 0.00 1.74 0.00 72 1006.8
20190121115006 2 311 7.0 12.0 0.00 1.75 0.00 72 1006.8
20190121114506 2 263 5.0 12.0 0.00 1.75 0.00 71 1006.7
20190121114005 2 294 7.0 15.0 0.00 1.76 0.00 73 1006.7
20190121113504 2 301 7.0 13.0 0.00 1.77 0.00 73 1006.6
20190121113005 2 256 5.0 9.0 0.00 1.78 0.00 73 1006.6
20190121112505 3 246 5.0 9.0 0.00 1.79 0.00 73 1006.4
20190121112005 3 269 6.0 12.0 0.00 1.80 0.00 73 1006.4
20190121111505 3 294 6.0 10.0 0.00 1.80 0.00 74 1006.3
20190121111005 3 247 6.0 11.0 0.00 1.81 0.00 74 1006.2
20190121110505 3 203 6.0 12.0 0.00 1.82 0.00 73 1006.0
20190121110006 3 255 8.0 13.0 0.00 1.82 0.00 74 1005.9
20190121105505 3 228 7.0 14.0 0.00 1.83 0.00 75 1005.7
20190121105004 3 291 4.0 11.0 0.00 1.83 0.00 76 1005.8
20190121104505 3 324 5.0 11.0 0.00 1.84 0.00 76 1005.6
20190121104005 3 222 4.0 8.0 0.00 1.84 0.00 75 1005.5
20190121103505 3 318 6.0 10.0 0.00 1.85 0.00 75 1005.4
20190121103005 3 260 6.0 12.0 0.00 1.85 0.00 76 1005.3
20190121102504 3 259 4.0 7.0 0.00 1.86 0.00 75 1005.3
20190121102005 3 232 4.0 8.0 0.00 1.86 0.00 75 1005.3
20190121101505 4 257 5.0 10.0 0.00 1.87 0.00 75 1005.2
20190121101006 4 311 6.0 11.0 0.00 1.87 0.00 75 1005.1
20190121100505 4 291 4.0 9.0 0.00 1.89 0.00 75 1005.0
20190121100006 4 284 5.0 13.0 0.00 1.91 0.00 74 1004.9
20190121095505 4 294 7.0 13.0 0.00 1.92 0.00 75 1004.9
20190121095005 4 235 7.0 13.0 0.00 1.92 0.00 75 1004.8
20190121094504 4 214 5.0 10.0 0.00 1.93 0.00 75 1004.8
20190121094005 4 239 8.0 15.0 0.00 1.94 0.00 75 1004.8
20190121093504 5 259 4.0 9.0 0.00 1.96 0.00 76 1004.7
20190121093005 5 214 5.0 12.0 0.00 1.99 0.00 75 1004.6
20190121092505 5 269 5.0 11.0 0.00 2.04 0.00 75 1004.4